Time;durP1;ratioP1;P1;durP2;ratioP2;P2;SDS_P1;SDS_P2;PMS_P1;PMS_P2;Temp;Humidity;BMP_temperature;BMP_pressure;BME280_temperature;BME280_humidity;BME280_pressure;Samples;Min_cycle;Max_cycle;Signal;HPM_P1;HPM_P2
2022/08/22 00:00:59;;;;;;;7.53;3.22;;;;;;;16.24;100.00;100560.63;4952748;29;20508;-69
2022/08/22 00:04:23;;;;;;;9.77;3.35;;;;;;;16.23;100.00;100562.44;4952764;28;20031;-69
2022/08/22 00:07:14;;;;;;;20.45;4.63;;;;;;;16.20;100.00;100554.72;4951273;29;20034;-69
2022/08/22 00:09:39;;;;;;;8.75;3.55;;;;;;;16.23;100.00;100556.28;4952596;29;20063;-68
2022/08/22 00:12:21;;;;;;;10.25;3.65;;;;;;;16.14;100.00;100541.88;4952691;29;20094;-68
2022/08/22 00:14:55;;;;;;;7.20;4.32;;;;;;;16.15;100.00;100546.25;4965699;28;20470;-68
2022/08/22 00:17:37;;;;;;;8.07;4.05;;;;;;;15.90;100.00;100505.66;4951984;28;20046;-68
2022/08/22 00:20:12;;;;;;;7.32;3.58;;;;;;;16.12;100.00;100543.78;4933494;29;20359;-68
2022/08/22 00:22:50;;;;;;;7.45;3.40;;;;;;;16.20;100.00;100552.06;4982285;28;20477;-69
2022/08/22 00:25:33;;;;;;;12.48;4.05;;;;;;;16.17;100.00;100549.63;4951600;28;20122;-69
2022/08/22 00:28:07;;;;;;;6.85;3.65;;;;;;;16.16;100.00;100547.06;4951937;29;20035;-69
2022/08/22 00:30:41;;;;;;;11.55;3.65;;;;;;;16.13;100.00;100550.78;4952014;28;20110;-68
2022/08/22 00:33:22;;;;;;;12.10;3.60;;;;;;;16.07;100.00;100547.72;4921797;28;20027;-68
2022/08/22 00:35:52;;;;;;;7.05;3.65;;;;;;;15.99;100.00;100547.41;4934945;29;20028;-67
2022/08/22 00:38:26;;;;;;;11.63;4.00;;;;;;;15.95;100.00;100543.31;4929534;29;20036;-68
2022/08/22 00:41:31;;;;;;;5.88;3.85;;;;;;;15.92;100.00;100536.38;4914624;29;20027;-68
2022/08/22 00:44:12;;;;;;;6.05;3.13;;;;;;;15.93;100.00;100545.19;4937985;28;20035;-68
2022/08/22 00:47:15;;;;;;;6.95;3.85;;;;;;;15.96;100.00;100551.13;4934935;29;20026;-67
2022/08/22 00:50:02;;;;;;;8.52;3.95;;;;;;;15.94;100.00;100547.75;4944585;29;20417;-68
2022/08/22 00:52:57;;;;;;;6.25;3.65;;;;;;;15.92;100.00;100556.78;4947904;28;20478;-67
2022/08/22 00:55:31;;;;;;;5.78;3.63;;;;;;;15.88;100.00;100548.19;4940840;29;20036;-68
2022/08/22 00:58:18;;;;;;;6.47;3.70;;;;;;;15.82;100.00;100548.59;5014844;28;20055;-68
2022/08/22 01:00:53;;;;;;;10.38;3.15;;;;;;;15.80;100.00;100551.34;4945420;28;20027;-68
2022/08/22 01:03:40;;;;;;;7.75;3.75;;;;;;;15.79;100.00;100546.16;4950807;28;20064;-68
2022/08/22 01:06:28;;;;;;;6.82;4.10;;;;;;;15.66;100.00;100540.84;4941237;28;20043;-68
2022/08/22 01:09:30;;;;;;;8.35;3.83;;;;;;;15.65;100.00;100547.09;4954508;28;20119;-68
2022/08/22 01:12:12;;;;;;;8.80;3.33;;;;;;;15.55;100.00;100534.59;4936416;28;20027;-68
2022/08/22 01:14:58;;;;;;;8.18;3.17;;;;;;;15.60;100.00;100548.38;4950304;28;20027;-67
2022/08/22 01:17:49;;;;;;;7.05;3.95;;;;;;;15.58;100.00;100545.81;4949943;28;20057;-67
2022/08/22 01:20:36;;;;;;;6.05;3.75;;;;;;;15.56;100.00;100536.28;4955423;28;20047;-67
2022/08/22 01:23:16;;;;;;;9.30;4.40;;;;;;;15.57;100.00;100533.56;4937817;28;20037;-67
2022/08/22 01:26:05;;;;;;;9.60;4.13;;;;;;;15.49;100.00;100513.81;4937860;28;20035;-67
2022/08/22 01:28:43;;;;;;;7.88;4.20;;;;;;;15.66;100.00;100542.66;4929703;29;20119;-67
2022/08/22 01:31:50;;;;;;;9.90;4.70;;;;;;;15.66;100.00;100537.34;4947620;28;20040;-67
2022/08/22 01:34:55;;;;;;;6.93;4.22;;;;;;;15.49;100.00;100508.53;5010111;28;20034;-68
2022/08/22 01:37:36;;;;;;;11.50;4.32;;;;;;;15.65;100.00;100549.75;4999682;28;20069;-68
2022/08/22 01:40:19;;;;;;;8.20;4.25;;;;;;;15.63;100.00;100553.47;4960881;28;20040;-67
2022/08/22 01:42:47;;;;;;;7.50;4.28;;;;;;;15.62;100.00;100551.75;4950701;28;20035;-67
2022/08/22 01:45:13;;;;;;;8.40;4.70;;;;;;;15.57;100.00;100546.78;4950809;28;20476;-68
2022/08/22 01:47:58;;;;;;;7.03;3.75;;;;;;;15.49;100.00;100550.91;4950882;29;20077;-67
2022/08/22 01:50:32;;;;;;;8.85;4.50;;;;;;;15.37;100.00;100547.28;4965912;28;20035;-69
2022/08/22 01:53:03;;;;;;;16.75;3.80;;;;;;;15.33;100.00;100543.13;4933590;28;20066;-68
2022/08/22 01:55:35;;;;;;;8.18;4.30;;;;;;;15.26;100.00;100537.41;4953060;28;20089;-67
2022/08/22 01:58:24;;;;;;;5.85;3.88;;;;;;;15.17;100.00;100529.22;4953933;28;20563;-69
2022/08/22 02:01:07;;;;;;;6.25;4.03;;;;;;;15.18;100.00;100537.06;4951312;28;20047;-70
2022/08/22 02:03:52;;;;;;;9.05;4.55;;;;;;;15.14;100.00;100540.84;4953915;28;20440;-69
2022/08/22 02:06:31;;;;;;;8.55;4.35;;;;;;;15.05;100.00;100537.97;4954413;29;20478;-70
2022/08/22 02:09:19;;;;;;;14.02;4.47;;;;;;;15.00;100.00;100543.59;4953999;28;20081;-69
2022/08/22 02:11:57;;;;;;;10.50;4.45;;;;;;;14.99;100.00;100544.53;4981216;28;20074;-69
2022/08/22 02:14:32;;;;;;;12.98;4.45;;;;;;;14.98;100.00;100542.81;4936584;28;20051;-70
2022/08/22 02:17:17;;;;;;;;;;;;;;;15.00;100.00;100542.75;4954233;29;20512;-69
2022/08/22 02:19:49;;;;;;;;;;;;;;;14.97;100.00;100538.47;4960806;28;19915;-69
2022/08/22 02:22:55;;;;;;;10.18;4.85;;;;;;;14.94;100.00;100543.97;4947766;28;20456;-70
2022/08/22 02:25:34;;;;;;;7.07;4.53;;;;;;;14.90;100.00;100547.78;4939972;28;20050;-69
2022/08/22 02:28:02;;;;;;;6.85;4.38;;;;;;;14.88;100.00;100549.66;4935638;29;20035;-69
2022/08/22 02:30:46;;;;;;;8.20;4.45;;;;;;;14.84;100.00;100546.38;4953859;28;20063;-68
2022/08/22 02:33:44;;;;;;;14.05;5.20;;;;;;;14.73;100.00;100545.41;4956817;28;20543;-68
2022/08/22 02:36:29;;;;;;;12.90;4.53;;;;;;;14.65;100.00;100537.09;4953560;28;20042;-68
2022/08/22 02:39:12;;;;;;;7.20;4.78;;;;;;;14.59;100.00;100537.50;4936520;29;20058;-68
2022/08/22 02:41:51;;;;;;;7.47;4.35;;;;;;;14.58;100.00;100535.78;4953725;28;20043;-69
2022/08/22 02:44:38;;;;;;;6.03;4.07;;;;;;;14.53;100.00;100524.69;4953970;29;20481;-70
2022/08/22 02:47:25;;;;;;;11.02;4.68;;;;;;;14.56;100.00;100527.13;4954730;28;20028;-68
2022/08/22 02:49:57;;;;;;;12.82;4.95;;;;;;;14.57;100.00;100524.34;4953364;28;20031;-68
2022/08/22 02:52:44;;;;;;;8.60;5.10;;;;;;;14.55;100.00;100525.41;4952328;29;20031;-68
2022/08/22 02:55:38;;;;;;;9.88;5.00;;;;;;;14.52;100.00;100525.63;4953269;28;20027;-68
2022/08/22 02:58:22;;;;;;;8.75;4.28;;;;;;;14.49;100.00;100525.81;4967878;28;20115;-68
2022/08/22 03:00:56;;;;;;;9.35;4.60;;;;;;;14.40;100.00;100515.84;4941604;28;20103;-69
2022/08/22 03:03:23;;;;;;;;;;;;;;;14.41;100.00;100522.81;4953655;28;20486;-69
2022/08/22 03:06:01;;;;;;;7.25;4.45;;;;;;;14.35;100.00;100513.47;4952046;28;19918;-69
2022/08/22 03:08:37;;;;;;;8.27;4.47;;;;;;;14.24;100.00;100500.91;4953322;29;20036;-68
2022/08/22 03:11:25;;;;;;;8.10;4.45;;;;;;;14.32;100.00;100514.50;4941120;28;20130;-68
2022/08/22 03:14:15;;;;;;;11.65;4.80;;;;;;;14.29;100.00;100519.13;4934884;28;20046;-68
2022/08/22 03:16:52;;;;;;;6.28;4.05;;;;;;;14.21;100.00;100522.25;4945431;28;20043;-68
2022/08/22 03:19:32;;;;;;;6.30;4.15;;;;;;;14.18;100.00;100526.88;4951117;28;20042;-68
2022/08/22 03:22:02;;;;;;;6.22;3.90;;;;;;;14.15;100.00;100506.78;5011359;28;20031;-68
2022/08/22 03:24:40;;;;;;;11.52;4.40;;;;;;;14.15;100.00;100505.94;5019081;28;20034;-68
2022/08/22 03:27:24;;;;;;;6.88;4.20;;;;;;;14.02;100.00;100481.22;4953260;28;20035;-68
2022/08/22 03:29:54;;;;;;;7.25;4.40;;;;;;;14.08;100.00;100496.69;5014691;28;20027;-68
2022/08/22 03:32:47;;;;;;;11.55;4.88;;;;;;;14.09;100.00;100498.41;4929139;29;20050;-68
2022/08/22 03:35:24;;;;;;;6.90;4.10;;;;;;;14.05;100.00;100499.53;4929340;29;20047;-68
2022/08/22 03:37:52;;;;;;;7.28;4.22;;;;;;;14.00;100.00;100494.53;4948552;28;20032;-68
2022/08/22 03:40:32;;;;;;;13.32;3.97;;;;;;;13.93;100.00;100480.00;4941541;28;20375;-68
2022/08/22 03:43:34;;;;;;;11.43;4.72;;;;;;;13.95;100.00;100493.97;4923800;28;20023;-68
2022/08/22 03:46:25;;;;;;;9.07;4.82;;;;;;;13.62;100.00;100435.34;4952694;28;20027;-68
2022/08/22 03:49:19;;;;;;;12.50;4.93;;;;;;;13.94;100.00;100486.97;4936103;28;20761;-68
2022/08/22 03:52:16;;;;;;;8.88;4.50;;;;;;;13.94;100.00;100480.84;4940662;28;20027;-68
2022/08/22 03:54:51;;;;;;;7.88;4.53;;;;;;;13.93;100.00;100492.34;5012758;28;20473;-68
2022/08/22 03:57:45;;;;;;;6.65;3.88;;;;;;;13.90;100.00;100482.84;4934362;28;20371;-68
2022/08/22 04:00:22;;;;;;;8.05;3.92;;;;;;;13.85;100.00;100482.28;5014905;28;20073;-68
2022/08/22 04:03:03;;;;;;;7.97;4.07;;;;;;;13.81;100.00;100491.34;4952353;28;20051;-68
2022/08/22 04:05:50;;;;;;;9.25;4.22;;;;;;;13.71;100.00;100491.06;5010673;28;20039;-68
2022/08/22 04:08:26;;;;;;;11.73;4.47;;;;;;;13.67;100.00;100480.78;4952153;28;20375;-68
2022/08/22 04:11:33;;;;;;;8.93;4.57;;;;;;;13.47;100.00;100455.59;4950701;28;20327;-68
2022/08/22 04:14:15;;;;;;;10.57;4.45;;;;;;;13.65;100.00;100480.03;4934432;29;20031;-68
2022/08/22 04:16:52;;;;;;;15.45;4.57;;;;;;;13.64;100.00;100479.19;4951826;28;20031;-68
2022/08/22 04:19:41;;;;;;;15.30;5.15;;;;;;;13.62;100.00;100482.88;4951561;28;20031;-68
2022/08/22 04:22:42;;;;;;;6.63;4.20;;;;;;;13.58;100.00;100484.84;4952479;29;20440;-68
2022/08/22 04:25:15;;;;;;;8.68;5.15;;;;;;;13.53;100.00;100478.13;4937887;28;20047;-67
2022/08/22 04:27:48;;;;;;;6.45;4.20;;;;;;;13.50;100.00;100488.88;4922430;28;20562;-67
2022/08/22 04:30:24;;;;;;;10.43;4.97;;;;;;;13.48;100.00;100488.97;4933429;28;20042;-68
2022/08/22 04:33:00;;;;;;;6.57;4.18;;;;;;;13.46;100.00;100487.34;4948837;28;20039;-68
2022/08/22 04:35:28;;;;;;;7.32;4.78;;;;;;;13.47;100.00;100494.34;4949410;28;20035;-69
2022/08/22 04:37:58;;;;;;;9.10;5.13;;;;;;;12.93;100.00;100428.06;4937728;28;20070;-69
2022/08/22 04:40:29;;;;;;;7.22;5.15;;;;;;;13.30;100.00;100500.63;4966448;28;20435;-69
2022/08/22 04:43:00;;;;;;;9.15;4.85;;;;;;;13.24;100.00;100490.44;4917874;28;20390;-69
2022/08/22 04:45:33;;;;;;;8.52;4.80;;;;;;;13.24;100.00;100491.31;4950104;29;20032;-69
2022/08/22 04:48:09;;;;;;;15.77;5.00;;;;;;;13.26;100.00;100501.75;4949916;29;20111;-69
2022/08/22 04:51:03;;;;;;;13.20;5.50;;;;;;;13.31;100.00;100497.88;4966972;28;20073;-69
2022/08/22 04:53:46;;;;;;;7.10;5.07;;;;;;;13.34;100.00;100499.50;4934800;29;20039;-69
2022/08/22 04:56:28;;;;;;;9.27;5.68;;;;;;;13.37;100.00;100512.53;4951492;28;20027;-69
2022/08/22 04:59:00;;;;;;;14.38;5.07;;;;;;;13.35;100.00;100511.75;4951640;29;20385;-69
2022/08/22 05:02:07;;;;;;;8.48;5.47;;;;;;;13.45;100.00;100520.00;4962086;28;20035;-69
2022/08/22 05:04:38;;;;;;;9.23;4.93;;;;;;;13.45;100.00;100517.34;5002419;28;20119;-69
2022/08/22 05:07:10;;;;;;;9.38;5.40;;;;;;;13.38;100.00;100497.53;4985612;28;20060;-69
2022/08/22 05:09:37;;;;;;;13.57;5.15;;;;;;;13.48;100.00;100510.09;4960613;28;20385;-69
2022/08/22 05:12:07;;;;;;;8.07;5.03;;;;;;;13.53;100.00;100509.81;4951062;28;20027;-69
2022/08/22 05:14:50;;;;;;;9.35;5.20;;;;;;;13.57;100.00;100514.81;4965805;28;20393;-69
2022/08/22 05:17:20;;;;;;;8.55;4.78;;;;;;;13.67;100.00;100515.97;4950256;28;20474;-69
2022/08/22 05:19:49;;;;;;;26.10;5.65;;;;;;;13.78;100.00;100517.94;4954270;28;20050;-69
2022/08/22 05:22:27;;;;;;;11.80;5.53;;;;;;;13.91;100.00;100518.88;4958602;28;20028;-69
2022/08/22 05:24:57;;;;;;;7.93;4.78;;;;;;;14.01;100.00;100512.09;4940311;29;20042;-69
2022/08/22 05:27:29;;;;;;;8.23;4.35;;;;;;;14.18;100.00;100526.88;4942100;28;20106;-69
2022/08/22 05:30:10;;;;;;;10.65;5.68;;;;;;;14.32;100.00;100517.13;4951152;28;20023;-69
2022/08/22 05:33:13;;;;;;;9.77;5.35;;;;;;;14.55;100.00;100514.84;4934645;29;20028;-69
2022/08/22 05:35:43;;;;;;;6.22;4.60;;;;;;;14.70;100.00;100508.56;4939448;28;20039;-69
2022/08/22 05:38:12;;;;;;;9.70;5.88;;;;;;;14.83;100.00;100520.03;5012840;28;20028;-69
2022/08/22 05:40:38;;;;;;;12.10;5.80;;;;;;;14.96;100.00;100514.78;4917559;28;20419;-70
2022/08/22 05:43:05;;;;;;;11.25;6.20;;;;;;;15.07;100.00;100515.75;4946400;28;20114;-69
2022/08/22 05:45:33;;;;;;;7.05;5.05;;;;;;;15.29;100.00;100531.91;4949491;28;20109;-69
2022/08/22 05:48:06;;;;;;;8.88;5.07;;;;;;;15.31;100.00;100513.25;4927842;28;20445;-69
2022/08/22 05:50:40;;;;;;;17.58;5.75;;;;;;;15.48;100.00;100522.72;4939101;28;20093;-69
2022/08/22 05:53:13;;;;;;;7.60;4.72;;;;;;;15.63;100.00;100534.91;4937135;28;20544;-69
2022/08/22 05:55:48;;;;;;;8.65;5.18;;;;;;;15.71;100.00;100527.31;4936742;28;20028;-69
2022/08/22 05:58:29;;;;;;;7.38;3.95;;;;;;;15.77;100.00;100517.13;4931015;29;20035;-69
2022/08/22 06:01:06;;;;;;;11.25;5.53;;;;;;;15.91;100.00;100532.06;4932707;28;20032;-69
2022/08/22 06:03:57;;;;;;;8.27;5.25;;;;;;;15.92;100.00;100507.22;4936760;28;20035;-69
2022/08/22 06:06:23;;;;;;;11.45;5.35;;;;;;;16.08;100.00;100526.44;4935368;28;20122;-69
2022/08/22 06:09:14;;;;;;;7.93;5.25;;;;;;;16.15;100.00;100530.34;4930429;28;20050;-69
2022/08/22 06:11:46;;;;;;;8.48;4.95;;;;;;;16.25;100.00;100542.00;4924526;28;20031;-69
2022/08/22 06:14:21;;;;;;;9.38;4.82;;;;;;;16.32;100.00;100543.22;4934231;28;20027;-69
2022/08/22 06:16:53;;;;;;;15.15;4.93;;;;;;;16.40;100.00;100545.31;4938354;28;20036;-69
2022/08/22 06:19:18;;;;;;;12.93;5.25;;;;;;;16.46;100.00;100539.56;5003217;28;20117;-69
2022/08/22 06:21:45;;;;;;;9.82;5.10;;;;;;;16.54;100.00;100539.03;4949330;28;20161;-69
2022/08/22 06:24:17;;;;;;;8.65;5.35;;;;;;;16.58;100.00;100537.88;5016195;28;20027;-69
2022/08/22 06:26:45;;;;;;;12.57;4.68;;;;;;;16.67;100.00;100537.19;4962772;28;20031;-69
2022/08/22 06:29:33;;;;;;;10.32;4.70;;;;;;;16.74;100.00;100535.78;4938226;28;20019;-69
2022/08/22 06:32:01;;;;;;;10.77;5.82;;;;;;;16.79;100.00;100525.69;4935777;28;20031;-69
2022/08/22 06:34:32;;;;;;;11.02;4.47;;;;;;;16.88;100.00;100526.81;5008828;28;20034;-68
2022/08/22 06:37:02;;;;;;;9.60;4.50;;;;;;;16.95;100.00;100528.06;4921461;28;20482;-69
2022/08/22 06:39:31;;;;;;;14.20;5.30;;;;;;;16.98;100.00;100523.38;4949436;28;20027;-69
2022/08/22 06:42:08;;;;;;;9.77;4.93;;;;;;;16.96;100.00;100514.69;4952374;28;20098;-69
2022/08/22 06:44:41;;;;;;;10.68;4.93;;;;;;;17.15;100.00;100538.03;4949104;28;20035;-68
2022/08/22 06:47:09;;;;;;;7.50;4.55;;;;;;;17.16;100.00;100527.31;4953080;28;20521;-69
2022/08/22 06:49:36;;;;;;;10.10;5.30;;;;;;;17.24;100.00;100530.22;4934522;28;20024;-68
2022/08/22 06:52:08;;;;;;;12.25;4.70;;;;;;;17.38;100.00;100545.97;4962308;28;20039;-69
2022/08/22 06:54:39;;;;;;;10.18;4.97;;;;;;;17.46;100.00;100550.69;4921773;28;20024;-69
2022/08/22 06:57:05;;;;;;;8.05;4.97;;;;;;;17.40;100.00;100526.41;4951649;28;20031;-69
2022/08/22 06:59:34;;;;;;;10.57;5.45;;;;;;;17.58;100.00;100541.81;5008786;28;20103;-68
2022/08/22 07:02:25;;;;;;;9.13;5.47;;;;;;;17.68;100.00;100547.25;4935090;29;20074;-69
2022/08/22 07:04:51;;;;;;;7.50;4.60;;;;;;;17.44;100.00;100501.31;4966269;28;20097;-69
2022/08/22 07:07:18;;;;;;;15.00;6.20;;;;;;;17.81;100.00;100543.53;4949241;28;20420;-69
2022/08/22 07:09:49;;;;;;;11.20;5.13;;;;;;;17.88;100.00;100543.91;4947732;28;20027;-69
2022/08/22 07:12:19;;;;;;;13.57;5.22;;;;;;;17.97;100.00;100543.19;4938631;28;20035;-69
2022/08/22 07:14:48;;;;;;;13.23;4.40;;;;;;;18.05;100.00;100550.56;4958145;28;20039;-69
2022/08/22 07:17:17;;;;;;;11.68;5.95;;;;;;;18.09;100.00;100542.22;4944704;28;20031;-69
2022/08/22 07:20:10;;;;;;;11.45;4.88;;;;;;;18.16;100.00;100547.91;4947047;28;20490;-69
2022/08/22 07:22:36;;;;;;;11.65;5.65;;;;;;;18.14;100.00;100529.41;4930164;29;20079;-69
2022/08/22 07:25:23;;;;;;;11.18;5.80;;;;;;;18.35;100.00;100554.28;4953667;28;20038;-69
2022/08/22 07:28:12;;;;;;;9.55;5.30;;;;;;;18.44;100.00;100557.19;4951688;28;20031;-69
2022/08/22 07:30:59;;;;;;;9.57;4.88;;;;;;;18.48;100.00;100551.50;4999968;28;20383;-69
2022/08/22 07:33:43;;;;;;;10.88;5.15;;;;;;;18.61;100.00;100559.38;5006087;28;20033;-69
2022/08/22 07:36:41;;;;;;;13.88;5.18;;;;;;;18.66;100.00;100562.50;4934940;28;20462;-69
2022/08/22 07:39:18;;;;;;;19.25;6.05;;;;;;;18.73;100.00;100555.72;4929392;28;20051;-69
2022/08/22 07:42:05;;;;;;;16.48;5.40;;;;;;;18.83;100.00;100559.31;4941704;28;20039;-69
2022/08/22 07:44:52;;;;;;;13.85;5.40;;;;;;;18.83;100.00;100548.66;4952538;29;20045;-69
2022/08/22 07:47:19;;;;;;;10.50;5.13;;;;;;;18.87;100.00;100539.47;4952833;29;20031;-69
2022/08/22 07:49:58;;;;;;;10.63;4.53;;;;;;;18.88;100.00;100530.50;4949565;28;20038;-69
2022/08/22 07:52:24;;;;;;;16.88;4.82;;;;;;;19.09;100.00;100555.38;4931381;28;20497;-69
2022/08/22 07:54:52;;;;;;;8.88;5.22;;;;;;;18.97;100.00;100524.41;4923244;28;20390;-69
2022/08/22 07:57:30;;;;;;;12.07;5.32;;;;;;;19.27;100.00;100553.81;4950455;28;20050;-69
2022/08/22 07:59:58;;;;;;;9.38;5.55;;;;;;;19.00;100.00;100505.50;4934451;28;20027;-69
2022/08/22 08:02:24;;;;;;;10.80;5.32;;;;;;;19.36;100.00;100541.56;5018253;28;20373;-69
2022/08/22 08:04:53;;;;;;;10.98;5.47;;;;;;;19.42;100.00;100550.88;4934742;28;20035;-69
2022/08/22 08:07:22;;;;;;;9.07;4.75;;;;;;;19.49;100.00;100552.06;4952048;28;20386;-69
2022/08/22 08:09:58;;;;;;;10.55;4.80;;;;;;;19.52;100.00;100541.13;4946624;28;20059;-69
2022/08/22 08:12:37;;;;;;;11.70;5.45;;;;;;;19.65;100.00;100549.78;5003097;28;20047;-69
2022/08/22 08:15:06;;;;;;;9.77;5.50;;;;;;;19.71;100.00;100551.91;4942035;28;20035;-69
2022/08/22 08:17:33;;;;;;;11.73;6.20;;;;;;;19.78;100.00;100547.75;4951727;28;20031;-69
2022/08/22 08:20:03;;;;;;;9.52;4.88;;;;;;;19.83;100.00;100557.06;4952456;28;20035;-69
2022/08/22 08:22:30;;;;;;;11.60;5.22;;;;;;;19.81;100.00;100536.81;4934924;28;20118;-69
2022/08/22 08:24:57;;;;;;;11.23;5.10;;;;;;;19.96;100.00;100540.81;4945883;28;20040;-69
2022/08/22 08:30:23;;;;;;;9.18;5.05;;;;;;;19.97;100.00;100515.84;4934786;28;20169;-69
2022/08/22 08:32:54;;;;;;;10.98;4.93;;;;;;;20.19;100.00;100539.66;4934549;28;20581;-69
2022/08/22 08:35:24;;;;;;;12.25;5.93;;;;;;;20.24;100.00;100532.06;4916565;28;20262;-69
2022/08/22 08:38:01;;;;;;;9.32;5.55;;;;;;;20.30;100.00;100534.25;4919411;28;20305;-69
2022/08/22 08:40:30;;;;;;;10.82;5.22;;;;;;;20.37;100.00;100540.75;4919335;28;20036;-69
2022/08/22 08:43:26;;;;;;;12.57;5.68;;;;;;;20.44;100.00;100541.03;4936759;28;20401;-69
2022/08/22 08:46:17;;;;;;;18.80;5.95;;;;;;;20.54;100.00;100533.06;4951443;29;20504;-69
2022/08/22 08:48:45;;;;;;;19.05;5.30;;;;;;;20.61;100.00;100532.38;4948210;28;20038;-79
2022/08/22 08:51:49;;;;;;;15.63;5.80;;;;;;;20.69;100.00;100540.53;5008514;28;20174;-69
2022/08/22 08:54:33;;;;;;;9.43;5.00;;;;;;;20.75;100.00;100534.63;4933594;28;20073;-69
2022/08/22 08:57:07;;;;;;;11.25;7.00;;;;;;;20.78;100.00;100533.53;4952107;28;20055;-69
2022/08/22 08:59:33;;;;;;;11.75;5.72;;;;;;;20.83;100.00;100531.25;4948773;28;20046;-69
2022/08/22 09:02:15;;;;;;;10.48;5.50;;;;;;;20.78;100.00;100518.34;4938273;28;20028;-69
2022/08/22 09:05:14;;;;;;;13.23;5.70;;;;;;;20.90;100.00;100532.41;5002811;28;20040;-69
2022/08/22 09:07:41;;;;;;;17.63;5.68;;;;;;;20.95;100.00;100530.16;4951188;28;20081;-69
2022/08/22 09:10:30;;;;;;;13.90;6.07;;;;;;;20.94;100.00;100517.78;4939560;28;20047;-69
2022/08/22 09:13:31;;;;;;;11.43;5.15;;;;;;;21.06;100.00;100526.50;4938122;28;20039;-70
2022/08/22 09:16:21;;;;;;;12.80;5.40;;;;;;;21.09;100.00;100534.25;4944877;28;20882;-69
2022/08/22 09:18:58;;;;;;;9.98;4.93;;;;;;;21.10;100.00;100523.44;4936448;28;20036;-69
2022/08/22 09:21:40;;;;;;;7.65;4.68;;;;;;;21.11;100.00;100525.13;4938263;28;20035;-69
2022/08/22 09:24:24;;;;;;;11.18;5.30;;;;;;;21.21;100.00;100531.31;4948396;28;20051;-69
2022/08/22 09:27:01;;;;;;;13.93;5.43;;;;;;;21.24;100.00;100536.38;4934970;29;20059;-69
2022/08/22 09:29:32;;;;;;;12.52;4.60;;;;;;;21.31;100.00;100531.31;4922067;28;20423;-69
2022/08/22 09:32:09;;;;;;;26.85;6.07;;;;;;;21.30;100.00;100525.09;4936623;28;20045;-69
2022/08/22 09:34:44;;;;;;;12.73;5.18;;;;;;;21.36;100.00;100519.19;4944341;28;20039;-69
2022/08/22 09:37:21;;;;;;;12.98;4.60;;;;;;;21.52;100.00;100536.50;4942740;29;20375;-69
2022/08/22 09:40:07;;;;;;;9.18;5.00;;;;;;;21.46;100.00;100513.81;4950372;28;20027;-69
2022/08/22 09:43:05;;;;;;;8.82;5.35;;;;;;;21.57;100.00;100524.38;4947881;29;20430;-70
2022/08/22 09:45:39;;;;;;;11.38;5.13;;;;;;;21.61;100.00;100527.59;4936490;28;20117;-69
2022/08/22 09:48:11;;;;;;;;;;;;;;;21.67;100.00;100521.66;5003470;28;20063;-69
2022/08/22 09:50:45;;;;;;;9.93;4.05;;;;;;;21.72;100.00;100508.72;4949059;28;19928;-69
2022/08/22 09:53:14;;;;;;;11.70;5.10;;;;;;;21.79;100.00;100517.84;4994850;28;20106;-69
2022/08/22 09:55:51;;;;;;;7.88;4.60;;;;;;;21.84;100.00;100507.53;4950304;28;20023;-69
2022/08/22 09:58:24;;;;;;;10.60;4.70;;;;;;;21.86;100.00;100490.34;4950785;29;20039;-69
2022/08/22 10:01:22;;;;;;;6.63;4.18;;;;;;;21.96;100.00;100490.34;4933775;28;20501;-69
2022/08/22 10:04:05;;;;;;;12.07;5.00;;;;;;;22.11;100.00;100499.56;4954077;28;20083;-69
2022/08/22 10:06:42;;;;;;;8.63;4.93;;;;;;;21.98;100.00;100472.31;4951373;28;20066;-69
2022/08/22 10:09:16;;;;;;;10.05;4.85;;;;;;;22.13;100.00;100497.59;4947440;28;20035;-68
2022/08/22 10:11:48;;;;;;;8.50;4.68;;;;;;;22.14;100.00;100507.28;4997362;28;20066;-69
2022/08/22 10:14:20;;;;;;;6.95;4.15;;;;;;;21.79;100.00;100437.56;4946374;28;20721;-69
2022/08/22 10:17:17;;;;;;;7.05;3.67;;;;;;;22.18;100.00;100492.63;4934012;28;20076;-69
2022/08/22 10:19:51;;;;;;;12.82;4.45;;;;;;;22.14;100.00;100477.00;5002638;28;20413;-69
2022/08/22 10:22:23;;;;;;;5.78;3.47;;;;;;;22.22;100.00;100490.50;5007776;28;20023;-69
2022/08/22 10:25:04;;;;;;;6.93;3.50;;;;;;;22.21;100.00;100489.66;4953017;28;20035;-69
2022/08/22 10:27:39;;;;;;;11.63;4.30;;;;;;;22.17;100.00;100488.25;4955279;28;20039;-68
2022/08/22 10:30:16;;;;;;;9.32;4.20;;;;;;;22.13;100.00;100486.88;4945842;28;20027;-69
2022/08/22 10:33:03;;;;;;;11.32;4.85;;;;;;;22.11;100.00;100478.16;4917344;28;20036;-68
2022/08/22 10:35:33;;;;;;;7.82;3.63;;;;;;;22.02;100.00;100483.56;5031538;28;20037;-69
2022/08/22 10:38:43;;;;;;;9.50;4.18;;;;;;;22.08;100.00;100478.44;4975049;28;20023;-69
2022/08/22 10:41:26;;;;;;;5.88;3.30;;;;;;;22.11;100.00;100474.63;4943925;28;20067;-68
2022/08/22 10:44:00;;;;;;;16.05;3.63;;;;;;;22.14;100.00;100479.66;4952559;28;20054;-68
2022/08/22 10:46:39;;;;;;;6.80;3.50;;;;;;;22.13;100.00;100470.81;4960394;28;20032;-69
2022/08/22 10:49:10;;;;;;;5.68;3.17;;;;;;;22.20;100.00;100474.59;4937192;28;20035;-69
2022/08/22 10:51:48;;;;;;;7.85;3.85;;;;;;;22.24;100.00;100470.59;4918812;28;20038;-69
2022/08/22 10:54:26;;;;;;;9.27;3.85;;;;;;;22.07;100.00;100433.09;4923660;28;20520;-68
2022/08/22 10:57:10;;;;;;;7.47;3.15;;;;;;;22.32;100.00;100470.72;4968187;28;20038;-69
2022/08/22 10:59:43;;;;;;;5.93;2.97;;;;;;;22.31;100.00;100462.81;4925591;28;20040;-68
2022/08/22 11:02:11;;;;;;;6.53;3.95;;;;;;;22.31;100.00;100471.69;4952905;28;20076;-68
2022/08/22 11:05:12;;;;;;;5.80;3.83;;;;;;;22.37;100.00;100472.94;4941518;28;20027;-69
2022/08/22 11:08:05;;;;;;;10.68;3.60;;;;;;;22.53;100.00;100467.75;4952470;28;20091;-69
2022/08/22 11:11:04;;;;;;;8.60;3.85;;;;;;;22.77;100.00;100467.19;4939927;28;20523;-69
2022/08/22 11:13:50;;;;;;;9.30;3.40;;;;;;;23.06;100.00;100470.44;4931661;28;20418;-69
2022/08/22 11:16:28;;;;;;;14.77;4.22;;;;;;;23.18;100.00;100446.94;4951591;28;20023;-69
2022/08/22 11:19:10;;;;;;;12.90;4.22;;;;;;;23.44;100.00;100452.31;5019518;28;20039;-69
2022/08/22 11:21:54;;;;;;;10.65;3.95;;;;;;;23.55;100.00;100466.31;4940163;28;20038;-68
2022/08/22 11:24:26;;;;;;;10.80;4.35;;;;;;;23.60;100.00;100468.50;4940836;28;20213;-69
2022/08/22 11:26:57;;;;;;;9.80;4.68;;;;;;;23.61;100.00;100462.16;4943414;28;20521;-69
2022/08/22 11:29:43;;;;;;;10.40;3.35;;;;;;;23.65;100.00;100468.91;4937207;28;20024;-68
2022/08/22 11:32:12;;;;;;;12.95;4.20;;;;;;;23.72;100.00;100465.41;4995090;28;20029;-68
2022/08/22 11:35:03;;;;;;;7.18;3.97;;;;;;;23.83;100.00;100465.13;5011871;28;20023;-67
2022/08/22 11:37:44;;;;;;;8.50;3.58;;;;;;;23.96;100.00;100464.69;5021173;28;20494;-70
2022/08/22 11:40:34;;;;;;;6.78;4.13;;;;;;;24.18;100.00;100464.13;4958714;28;20370;-69
2022/08/22 11:43:53;;;;;;;12.55;3.72;;;;;;;24.32;100.00;100466.19;4948948;28;20031;-69
2022/08/22 11:46:21;;;;;;;9.15;3.88;;;;;;;24.64;100.00;100468.09;5011110;28;20112;-70
2022/08/22 11:48:48;;;;;;;8.02;4.15;;;;;;;24.89;99.89;100463.63;4943229;28;20498;-69
2022/08/22 11:51:51;;;;;;;8.93;3.92;;;;;;;25.12;98.65;100464.66;4934407;28;20054;-69
2022/08/22 11:54:28;;;;;;;9.77;4.22;;;;;;;26.37;89.59;100443.28;4943385;28;20031;-69
2022/08/22 11:57:06;;;;;;;7.28;4.22;;;;;;;27.30;86.98;100442.09;4951798;28;20610;-68
2022/08/22 11:59:55;;;;;;;8.68;4.40;;;;;;;28.52;83.72;100446.06;4935505;28;20023;-69
2022/08/22 12:02:27;;;;;;;10.32;4.50;;;;;;;29.13;77.28;100421.06;4948245;29;20106;-69
2022/08/22 12:04:57;;;;;;;9.35;3.45;;;;;;;29.41;75.22;100443.59;4951177;29;20054;-69
2022/08/22 12:07:29;;;;;;;16.60;4.30;;;;;;;29.95;77.52;100434.75;5008147;28;20035;-69
2022/08/22 12:09:58;;;;;;;12.38;4.50;;;;;;;31.38;74.46;100424.41;4933371;28;20473;-70
2022/08/22 12:12:49;;;;;;;8.15;4.38;;;;;;;32.77;71.44;100422.84;4995368;28;20059;-70